Time;durP1;ratioP1;P1;durP2;ratioP2;P2;SDS_P1;SDS_P2;PMS_P1;PMS_P2;Temp;Humidity;BMP_temperature;BMP_pressure;BME280_temperature;BME280_humidity;BME280_pressure;Samples;Min_cycle;Max_cycle;Signal;HPM_P1;HPM_P2
2022/08/10 00:00:22;;;;;;;4.55;1.90;;;23.20;58.20;;;;;;5068321;28;20005;-79
2022/08/10 00:02:54;;;;;;;5.00;2.20;;;23.20;58.40;;;;;;5060718;28;20029;-80
2022/08/10 00:05:20;;;;;;;2.95;1.90;;;;;;;;;;5064195;28;20040;-79
2022/08/10 00:07:47;;;;;;;5.78;1.80;;;23.20;58.50;;;;;;5044048;28;20017;-79
2022/08/10 00:10:14;;;;;;;4.40;1.98;;;23.20;58.60;;;;;;5042738;28;20025;-80
2022/08/10 00:12:44;;;;;;;3.78;1.70;;;23.00;58.60;;;;;;5061394;28;20017;-77
2022/08/10 00:15:12;;;;;;;5.20;1.90;;;23.30;59.20;;;;;;5045075;28;20045;-80
2022/08/10 00:17:38;;;;;;;2.50;1.80;;;23.10;59.20;;;;;;5039881;28;20029;-79
2022/08/10 00:20:04;;;;;;;4.13;1.90;;;23.00;59.10;;;;;;5062294;28;20021;-81
2022/08/10 00:22:30;;;;;;;3.53;2.17;;;23.00;59.30;;;;;;5039697;28;20017;-80
2022/08/10 00:24:56;;;;;;;3.08;1.98;;;;;;;;;;5051962;28;20036;-80
2022/08/10 00:27:27;;;;;;;5.60;3.05;;;22.90;58.80;;;;;;5049840;28;20047;-80
2022/08/10 00:29:53;;;;;;;5.20;2.63;;;21.50;58.70;;;;;;5042760;28;20018;-79
2022/08/10 00:32:19;;;;;;;4.80;2.40;;;22.80;59.50;;;;;;5045703;28;20410;-80
2022/08/10 00:34:45;;;;;;;3.08;1.92;;;22.70;59.30;;;;;;5075066;28;20104;-83
2022/08/10 00:37:12;;;;;;;5.25;2.00;;;22.70;59.30;;;;;;5078727;28;20015;-81
2022/08/10 00:39:38;;;;;;;7.28;2.33;;;;;;;;;;5066570;28;20047;-79
2022/08/10 00:42:06;;;;;;;5.07;2.85;;;22.70;59.30;;;;;;5059160;28;20028;-82
2022/08/10 00:44:32;;;;;;;3.63;2.17;;;;;;;;;;5057083;28;20104;-79
2022/08/10 00:46:59;;;;;;;3.85;1.80;;;;;;;;;;5060429;28;20446;-78
2022/08/10 00:49:26;;;;;;;4.28;2.00;;;22.60;59.60;;;;;;5061224;28;20075;-80
2022/08/10 00:51:52;;;;;;;5.35;2.08;;;22.60;59.30;;;;;;5054965;28;20028;-80
2022/08/10 00:54:19;;;;;;;3.97;1.80;;;22.60;59.20;;;;;;5072548;28;20063;-78
2022/08/10 00:56:44;;;;;;;4.20;1.95;;;22.60;59.60;;;;;;5075516;28;20029;-81
2022/08/10 00:59:10;;;;;;;6.57;3.47;;;22.70;59.40;;;;;;5054843;28;20189;-81
2022/08/10 01:01:36;;;;;;;6.57;2.38;;;22.60;59.30;;;;;;5069169;28;20033;-82
2022/08/10 01:04:03;;;;;;;6.78;2.75;;;22.60;59.30;;;;;;5061877;28;20024;-78
2022/08/10 01:06:56;;;;;;;4.70;2.10;;;22.60;59.70;;;;;;5042055;28;20017;-78
2022/08/10 01:09:30;;;;;;;3.08;1.90;;;22.60;59.00;;;;;;5059485;28;20052;-77
2022/08/10 01:12:08;;;;;;;5.35;1.98;;;22.70;59.00;;;;;;5042969;28;20140;-79
2022/08/10 01:14:36;;;;;;;4.15;2.00;;;22.60;59.20;;;;;;5059381;28;20033;-77
2022/08/10 01:17:11;;;;;;;3.83;1.80;;;22.60;59.70;;;;;;5062647;28;20043;-79
2022/08/10 01:19:56;;;;;;;4.40;1.85;;;22.60;59.10;;;;;;5062030;28;20029;-81
2022/08/10 01:22:22;;;;;;;3.80;1.95;;;22.70;59.20;;;;;;5062348;28;20025;-80
2022/08/10 01:25:36;;;;;;;4.72;1.85;;;22.60;59.10;;;;;;5061727;28;20036;-80
2022/08/10 01:28:19;;;;;;;4.65;2.20;;;22.50;59.90;;;;;;5057275;28;20025;-81
2022/08/10 01:30:47;;;;;;;3.83;2.17;;;22.40;60.20;;;;;;5061583;28;20190;-79
2022/08/10 01:33:24;;;;;;;3.60;2.35;;;22.30;59.90;;;;;;5059476;28;20013;-81
2022/08/10 01:36:22;;;;;;;5.45;2.13;;;22.30;59.90;;;;;;5038553;28;20029;-81
2022/08/10 01:38:50;;;;;;;4.07;2.15;;;22.30;60.40;;;;;;5045605;28;20060;-80
2022/08/10 01:41:24;;;;;;;3.35;2.10;;;22.20;60.60;;;;;;5047842;28;20028;-81
2022/08/10 01:44:04;;;;;;;8.93;2.00;;;22.10;60.40;;;;;;5066443;28;20101;-82
2022/08/10 01:46:31;;;;;;;7.32;2.35;;;22.10;60.70;;;;;;5067062;28;20048;-81
2022/08/10 01:49:01;;;;;;;3.83;2.25;;;22.10;60.80;;;;;;5057592;28;20128;-80
2022/08/10 01:51:35;;;;;;;5.23;2.40;;;22.00;61.30;;;;;;5048539;28;20017;-79
2022/08/10 01:54:02;;;;;;;7.00;3.22;;;22.00;60.60;;;;;;5063587;28;20260;-78
2022/08/10 01:56:37;;;;;;;8.80;4.78;;;22.00;61.10;;;;;;5055187;28;20029;-79
2022/08/10 01:59:23;;;;;;;7.95;3.03;;;21.90;61.60;;;;;;5061468;28;20025;-79
2022/08/10 02:01:55;;;;;;;7.28;3.08;;;21.90;61.50;;;;;;5061944;28;20033;-79
2022/08/10 02:04:23;;;;;;;4.75;2.72;;;21.90;61.50;;;;;;5059414;28;20033;-79
2022/08/10 02:06:52;;;;;;;5.10;2.55;;;21.80;61.90;;;;;;5044567;28;20029;-78
2022/08/10 02:09:31;;;;;;;8.15;5.03;;;21.80;61.70;;;;;;5060897;28;20095;-80
2022/08/10 02:12:02;;;;;;;4.10;2.60;;;21.80;61.80;;;;;;5062653;28;20063;-78
2022/08/10 02:14:34;;;;;;;6.70;2.45;;;21.70;61.70;;;;;;5062731;28;20036;-79
2022/08/10 02:17:06;;;;;;;3.75;2.22;;;21.70;62.00;;;;;;5062603;28;20113;-79
2022/08/10 02:19:35;;;;;;;4.88;2.40;;;21.70;61.50;;;;;;5034878;28;20040;-80
2022/08/10 02:22:02;;;;;;;10.52;5.95;;;21.70;62.10;;;;;;5044673;28;20025;-79
2022/08/10 02:24:28;;;;;;;5.30;2.55;;;21.70;61.80;;;;;;5052893;28;20030;-79
2022/08/10 02:26:54;;;;;;;9.65;4.13;;;;;;;;;;5058605;28;20025;-80
2022/08/10 02:29:20;;;;;;;4.15;2.80;;;21.70;61.90;;;;;;5044429;28;20021;-79
2022/08/10 02:31:46;;;;;;;5.10;3.38;;;;;;;;;;5042200;28;20083;-80
2022/08/10 02:34:14;;;;;;;5.40;2.28;;;21.60;62.00;;;;;;5062190;28;20036;-81
2022/08/10 02:36:48;;;;;;;6.95;2.40;;;21.60;62.10;;;;;;5061187;28;20013;-81
2022/08/10 02:39:16;;;;;;;6.13;3.30;;;23.70;63.20;;;;;;5061438;28;20102;-81
2022/08/10 02:42:02;;;;;;;4.78;2.30;;;21.60;62.50;;;;;;5051746;28;20040;-80
2022/08/10 02:44:58;;;;;;;6.22;2.60;;;21.50;61.90;;;;;;5044161;28;20060;-79
2022/08/10 02:48:02;;;;;;;5.30;2.40;;;21.50;62.50;;;;;;5045300;28;20125;-80
2022/08/10 02:50:37;;;;;;;3.42;2.30;;;21.50;62.70;;;;;;5058588;28;20032;-80
2022/08/10 02:53:09;;;;;;;6.47;2.80;;;21.40;62.60;;;;;;5028693;28;20021;-80
2022/08/10 02:55:59;;;;;;;8.13;2.65;;;21.40;62.50;;;;;;5061596;28;20060;-81
2022/08/10 02:58:33;;;;;;;11.77;3.03;;;21.40;62.90;;;;;;5052368;28;20033;-80
2022/08/10 03:01:03;;;;;;;6.85;2.63;;;21.30;62.70;;;;;;5043515;28;20040;-80
2022/08/10 03:03:42;;;;;;;6.85;2.60;;;21.30;62.80;;;;;;5035308;28;20020;-79
2022/08/10 03:06:11;;;;;;;6.47;2.70;;;21.20;63.30;;;;;;5044852;28;20101;-79
2022/08/10 03:08:41;;;;;;;5.95;2.35;;;21.20;63.50;;;;;;5052215;28;20060;-78
2022/08/10 03:11:11;;;;;;;5.18;2.40;;;21.10;63.50;;;;;;5062726;28;20040;-81
2022/08/10 03:13:37;;;;;;;3.05;1.88;;;21.10;63.20;;;;;;5064422;28;20242;-80
2022/08/10 03:16:03;;;;;;;6.97;2.50;;;;;;;;;;5063567;28;20036;-79
2022/08/10 03:18:32;;;;;;;4.25;2.22;;;21.10;63.20;;;;;;5045818;28;20585;-81
2022/08/10 03:20:59;;;;;;;4.68;2.50;;;21.10;63.50;;;;;;5062075;28;20047;-81
2022/08/10 03:23:26;;;;;;;6.03;2.30;;;21.00;63.40;;;;;;5069959;28;20013;-84
2022/08/10 03:25:55;;;;;;;3.55;2.30;;;21.00;63.40;;;;;;5062361;28;20033;-82
2022/08/10 03:28:26;;;;;;;4.43;2.15;;;21.00;63.40;;;;;;5075285;28;20037;-80
2022/08/10 03:30:52;;;;;;;5.50;2.40;;;;;;;;;;5070938;28;20483;-80
2022/08/10 03:33:21;;;;;;;3.85;2.60;;;20.80;63.70;;;;;;5052710;28;20203;-79
2022/08/10 03:35:47;;;;;;;3.67;2.20;;;;;;;;;;5043666;28;20116;-79
2022/08/10 03:38:13;;;;;;;5.65;2.53;;;20.70;64.00;;;;;;5040479;28;20486;-81
2022/08/10 03:40:40;;;;;;;6.15;2.50;;;20.70;64.20;;;;;;5060053;28;20021;-80
2022/08/10 03:43:09;;;;;;;4.72;2.72;;;20.70;64.30;;;;;;5061874;28;20035;-79
2022/08/10 03:45:36;;;;;;;5.63;2.13;;;;;;;;;;5067334;28;20033;-81
2022/08/10 03:48:04;;;;;;;4.82;2.30;;;20.60;64.20;;;;;;5063937;28;20021;-82
2022/08/10 03:50:32;;;;;;;4.10;2.42;;;20.70;64.20;;;;;;5075792;28;20049;-81
2022/08/10 03:52:58;;;;;;;7.28;2.38;;;20.70;64.20;;;;;;5063119;28;20039;-81
2022/08/10 03:55:25;;;;;;;6.00;2.30;;;20.70;64.20;;;;;;5073384;28;20130;-81
2022/08/10 03:57:51;;;;;;;4.10;2.35;;;;;;;;;;5057095;28;20025;-80
2022/08/10 04:00:17;;;;;;;4.38;2.40;;;;;;;;;;5056759;28;20060;-80
2022/08/10 04:02:45;;;;;;;6.70;2.17;;;20.70;64.10;;;;;;5043892;28;20575;-81
2022/08/10 04:05:14;;;;;;;6.13;2.20;;;20.60;64.50;;;;;;5040758;28;20032;-81
2022/08/10 04:07:40;;;;;;;6.83;2.47;;;;;;;;;;5043488;28;20028;-82
2022/08/10 04:10:06;;;;;;;4.95;2.13;;;20.70;64.00;;;;;;5047859;28;20033;-80
2022/08/10 04:12:32;;;;;;;3.40;2.00;;;20.70;64.20;;;;;;5046191;28;20048;-82
2022/08/10 04:14:58;;;;;;;3.08;2.20;;;;;;;;;;5059016;28;20099;-81
2022/08/10 04:17:26;;;;;;;3.65;2.17;;;20.60;64.30;;;;;;5046856;28;20021;-82
2022/08/10 04:19:54;;;;;;;3.72;2.28;;;20.60;64.30;;;;;;5040813;28;20040;-80
2022/08/10 04:22:22;;;;;;;7.43;2.08;;;20.50;64.40;;;;;;5042421;28;20024;-79
2022/08/10 04:24:53;;;;;;;3.70;2.30;;;20.50;64.70;;;;;;5057119;28;20112;-80
2022/08/10 04:27:19;;;;;;;6.40;2.50;;;20.50;65.30;;;;;;5046414;28;20025;-77
2022/08/10 04:29:46;;;;;;;3.20;2.30;;;;;;;;;;5060419;28;20036;-79
2022/08/10 04:32:15;;;;;;;3.78;2.30;;;20.60;64.80;;;;;;5066232;28;20092;-80
2022/08/10 04:34:43;;;;;;;5.70;2.65;;;20.60;64.80;;;;;;5061527;28;20128;-79
2022/08/10 04:37:11;;;;;;;5.78;2.53;;;20.50;64.60;;;;;;5061608;28;20033;-78
2022/08/10 04:39:38;;;;;;;4.43;2.40;;;20.40;64.80;;;;;;5044462;28;20036;-81
2022/08/10 04:42:04;;;;;;;3.15;2.10;;;20.40;65.30;;;;;;5061249;28;20384;-80
2022/08/10 04:44:31;;;;;;;3.45;2.40;;;20.40;65.70;;;;;;5061602;28;20123;-80
2022/08/10 04:46:57;;;;;;;4.30;2.20;;;;;;;;;;5062729;28;20028;-80
2022/08/10 04:49:22;;;;;;;3.22;2.22;;;20.40;65.40;;;;;;5041755;28;20025;-80
2022/08/10 04:51:48;;;;;;;5.57;2.47;;;20.40;65.80;;;;;;5046772;28;20028;-78
2022/08/10 04:54:14;;;;;;;8.05;2.35;;;20.40;65.10;;;;;;5062744;28;20471;-81
2022/08/10 04:56:40;;;;;;;5.05;2.20;;;20.40;65.20;;;;;;5044787;28;20029;-80
2022/08/10 04:59:07;;;;;;;3.90;2.10;;;20.30;65.70;;;;;;5053379;28;20057;-79
2022/08/10 05:01:33;;;;;;;8.75;2.88;;;;;;;;;;5045431;28;20075;-80
2022/08/10 05:03:59;;;;;;;3.97;2.53;;;;;;;;;;5061592;28;20033;-81
2022/08/10 05:06:25;;;;;;;4.45;2.30;;;20.40;65.40;;;;;;5063262;28;20037;-80
2022/08/10 05:08:50;;;;;;;3.00;1.85;;;20.50;65.40;;;;;;5054180;28;20052;-81
2022/08/10 05:11:16;;;;;;;7.38;2.80;;;20.50;65.80;;;;;;5048640;28;20029;-79
2022/08/10 05:13:42;;;;;;;7.43;2.63;;;;;;;;;;5048007;28;20060;-80
2022/08/10 05:16:08;;;;;;;4.22;2.38;;;;;;;;;;5061542;28;20048;-80
2022/08/10 05:18:33;;;;;;;6.50;2.47;;;20.40;65.60;;;;;;5066186;28;20025;-80
2022/08/10 05:20:59;;;;;;;6.18;2.40;;;;;;;;;;5039287;28;20029;-79
2022/08/10 05:23:25;;;;;;;5.07;2.38;;;;;;;;;;5063000;28;20076;-80
2022/08/10 05:25:51;;;;;;;6.72;2.53;;;20.50;65.50;;;;;;5066400;28;20044;-80
2022/08/10 05:28:17;;;;;;;3.53;2.30;;;;;;;;;;5050879;28;20243;-80
2022/08/10 05:30:43;;;;;;;6.47;2.50;;;;;;;;;;5052817;28;20033;-81
2022/08/10 05:33:09;;;;;;;5.07;2.10;;;;;;;;;;5066769;28;20032;-81
2022/08/10 05:35:37;;;;;;;7.10;2.53;;;;;;;;;;5067852;28;20033;-82
2022/08/10 05:38:03;;;;;;;4.68;2.70;;;;;;;;;;5068559;28;20059;-83
2022/08/10 05:40:29;;;;;;;3.55;2.33;;;;;;;;;;5062384;28;20029;-79
2022/08/10 05:42:55;;;;;;;4.43;2.28;;;;;;;;;;5061727;28;20032;-80
2022/08/10 05:45:24;;;;;;;4.75;2.20;;;21.30;64.10;;;;;;5054165;28;20098;-80
2022/08/10 05:47:51;;;;;;;5.78;2.15;;;;;;;;;;5051368;28;20486;-79
2022/08/10 05:50:20;;;;;;;6.18;2.30;;;21.80;63.00;;;;;;5062653;28;20025;-81
2022/08/10 05:52:46;;;;;;;8.25;2.47;;;22.90;60.60;;;;;;5063034;28;20021;-78
2022/08/10 05:55:12;;;;;;;4.82;2.35;;;23.00;61.10;;;;;;5063075;28;20029;-79
2022/08/10 05:57:38;;;;;;;5.80;2.50;;;23.80;59.10;;;;;;5044242;28;20048;-82
2022/08/10 06:00:08;;;;;;;6.00;2.38;;;23.80;59.20;;;;;;5054329;28;20029;-81
2022/08/10 06:02:44;;;;;;;4.60;2.65;;;24.50;57.80;;;;;;5060773;28;20025;-81
2022/08/10 06:05:18;;;;;;;6.80;2.70;;;25.10;58.40;;;;;;5062316;28;20033;-79
2022/08/10 06:08:18;;;;;;;5.38;2.85;;;24.60;57.80;;;;;;5061885;28;20024;-79
2022/08/10 06:10:44;;;;;;;;;;;24.30;57.60;;;;;;5068237;28;20016;-83
2022/08/10 06:15:57;;;;;;;7.32;3.05;;;23.40;59.70;;;;;;5075269;28;20075;-82
2022/08/10 06:18:24;;;;;;;7.28;2.35;;;23.30;60.10;;;;;;5055955;28;20033;-81
2022/08/10 06:20:50;;;;;;;4.65;2.53;;;23.10;60.90;;;;;;5065277;28;20075;-80
2022/08/10 06:23:16;;;;;;;6.85;2.25;;;;;;;;;;5038780;28;20025;-79
2022/08/10 06:25:42;;;;;;;4.88;2.67;;;;;;;;;;5055592;28;20092;-81
2022/08/10 06:28:13;;;;;;;5.90;2.72;;;22.90;61.00;;;;;;5034868;28;20032;-79
2022/08/10 06:30:40;;;;;;;4.47;2.28;;;22.80;61.50;;;;;;5044754;28;20399;-78
2022/08/10 06:33:07;;;;;;;4.10;2.55;;;;;;;;;;5057425;28;20028;-79
2022/08/10 06:35:35;;;;;;;5.95;2.83;;;22.80;61.20;;;;;;5050924;28;20410;-81
2022/08/10 06:38:03;;;;;;;4.18;2.67;;;22.80;61.70;;;;;;5066231;28;20009;-82
2022/08/10 06:40:35;;;;;;;5.15;2.22;;;22.60;61.60;;;;;;5062169;28;20072;-80
2022/08/10 06:43:06;;;;;;;5.20;2.30;;;22.60;61.90;;;;;;5070464;28;20021;-81
2022/08/10 06:45:39;;;;;;;4.82;2.83;;;22.60;62.20;;;;;;5047242;28;20495;-80
2022/08/10 06:48:14;;;;;;;6.85;2.55;;;22.60;62.20;;;;;;5065456;28;20097;-78
2022/08/10 06:50:48;;;;;;;5.45;2.40;;;22.70;62.00;;;;;;5046921;28;20025;-82
2022/08/10 06:53:17;;;;;;;5.57;2.50;;;22.80;61.60;;;;;;5062527;28;20071;-82
2022/08/10 06:55:49;;;;;;;3.97;2.40;;;22.90;61.60;;;;;;5042525;28;20032;-80
2022/08/10 06:58:17;;;;;;;4.80;2.78;;;22.90;62.10;;;;;;5035963;28;20025;-80
2022/08/10 07:00:43;;;;;;;4.72;2.67;;;22.90;61.90;;;;;;5066735;28;20025;-84
2022/08/10 07:03:12;;;;;;;6.55;2.55;;;23.00;61.20;;;;;;5048659;28;20037;-81
2022/08/10 07:05:43;;;;;;;8.00;2.58;;;23.00;61.70;;;;;;5059739;28;20025;-80
2022/08/10 07:08:09;;;;;;;6.47;2.53;;;23.20;61.50;;;;;;5056201;28;20028;-80
2022/08/10 07:10:36;;;;;;;4.60;2.00;;;23.30;61.00;;;;;;5072892;28;20006;-81
2022/08/10 07:13:05;;;;;;;3.92;2.58;;;23.30;60.90;;;;;;5044213;28;20032;-85
2022/08/10 07:15:31;;;;;;;5.32;2.42;;;23.30;61.40;;;;;;5041342;28;20103;-78
2022/08/10 07:17:59;;;;;;;4.38;2.47;;;23.40;61.30;;;;;;5050319;28;20084;-81
2022/08/10 07:20:26;;;;;;;5.82;2.30;;;23.50;61.00;;;;;;5057237;28;20044;-84
2022/08/10 07:22:53;;;;;;;3.80;2.17;;;23.50;61.00;;;;;;5038340;28;20025;-82
2022/08/10 07:25:24;;;;;;;6.85;2.40;;;23.70;60.60;;;;;;5063371;28;20597;-82
2022/08/10 07:27:52;;;;;;;4.82;2.30;;;23.60;61.00;;;;;;5045086;28;20037;-82
2022/08/10 07:30:18;;;;;;;5.75;2.30;;;23.80;60.90;;;;;;5069713;28;20029;-82
2022/08/10 07:32:48;;;;;;;4.05;2.30;;;24.00;60.20;;;;;;5051887;28;20046;-81
2022/08/10 07:35:17;;;;;;;5.30;2.20;;;24.00;60.70;;;;;;5046937;28;20460;-81
2022/08/10 07:37:46;;;;;;;4.40;2.38;;;24.20;60.30;;;;;;5055845;28;20021;-81
2022/08/10 07:40:14;;;;;;;7.10;2.60;;;24.40;59.50;;;;;;5052618;28;20112;-80
2022/08/10 07:42:42;;;;;;;9.25;2.28;;;;;;;;;;5045513;28;20036;-80
2022/08/10 07:45:08;;;;;;;6.05;2.80;;;24.50;59.10;;;;;;5053285;28;20033;-80
2022/08/10 07:47:43;;;;;;;7.55;2.28;;;24.50;59.50;;;;;;5052727;28;20394;-79
2022/08/10 07:50:11;;;;;;;3.00;1.77;;;24.70;59.00;;;;;;5041463;28;20016;-79
2022/08/10 07:52:38;;;;;;;4.20;1.95;;;24.70;59.40;;;;;;5047243;28;20033;-82
2022/08/10 07:55:06;;;;;;;4.38;2.33;;;24.80;58.90;;;;;;5054882;28;20025;-80
2022/08/10 07:57:35;;;;;;;5.20;2.20;;;24.90;59.10;;;;;;5043283;28;20009;-81
2022/08/10 08:00:05;;;;;;;3.42;2.05;;;25.00;59.10;;;;;;5063844;28;20032;-81
2022/08/10 08:02:37;;;;;;;3.78;2.20;;;25.10;58.90;;;;;;5036320;28;20029;-81
2022/08/10 08:05:08;;;;;;;2.17;1.80;;;25.20;58.30;;;;;;5055830;28;20029;-79
2022/08/10 08:07:37;;;;;;;4.57;2.10;;;25.30;58.60;;;;;;5039687;28;20017;-81
2022/08/10 08:10:03;;;;;;;5.22;2.03;;;25.50;57.80;;;;;;5036268;28;20605;-80
2022/08/10 08:12:31;;;;;;;3.60;2.15;;;25.50;58.20;;;;;;5038530;28;20032;-79
2022/08/10 08:14:58;;;;;;;5.88;2.00;;;25.70;58.10;;;;;;5038245;28;20127;-80
2022/08/10 08:17:25;;;;;;;4.18;2.13;;;26.00;58.80;;;;;;5054714;28;20022;-81
2022/08/10 08:19:54;;;;;;;6.68;1.98;;;25.60;58.00;;;;;;5049721;28;20024;-79
2022/08/10 08:22:21;;;;;;;3.47;1.80;;;25.30;57.80;;;;;;5041513;28;20483;-80
2022/08/10 08:24:49;;;;;;;4.07;2.00;;;25.80;57.30;;;;;;5039818;28;20021;-82
2022/08/10 08:27:16;;;;;;;3.08;1.92;;;25.90;58.00;;;;;;5039599;28;20025;-80
2022/08/10 08:29:44;;;;;;;3.63;2.08;;;26.10;57.40;;;;;;5040601;28;20111;-79
2022/08/10 08:32:11;;;;;;;6.45;2.05;;;26.00;57.70;;;;;;5061895;28;20025;-80
2022/08/10 08:34:40;;;;;;;2.60;1.88;;;26.30;56.80;;;;;;5040964;28;20032;-81
2022/08/10 08:37:10;;;;;;;2.17;1.80;;;26.30;57.30;;;;;;5058867;28;20032;-80
2022/08/10 08:39:37;;;;;;;6.50;2.40;;;26.40;57.00;;;;;;5041787;28;20025;-82
2022/08/10 08:42:03;;;;;;;5.28;1.75;;;;;;;;;;5043900;28;20036;-81
2022/08/10 08:44:54;;;;;;;3.40;1.73;;;26.40;56.50;;;;;;5040416;28;20021;-80
2022/08/10 08:47:29;;;;;;;4.85;2.10;;;26.30;57.10;;;;;;5055921;28;20032;-80
2022/08/10 08:50:11;;;;;;;3.28;1.90;;;26.40;57.10;;;;;;5057782;28;20051;-80
2022/08/10 08:52:58;;;;;;;8.73;2.08;;;26.60;57.10;;;;;;5040109;28;20449;-80
2022/08/10 08:55:29;;;;;;;5.32;1.90;;;26.70;56.40;;;;;;5054539;28;20112;-80
2022/08/10 08:58:28;;;;;;;4.88;2.05;;;26.70;56.40;;;;;;5047336;28;20032;-80
2022/08/10 09:00:54;;;;;;;4.88;1.90;;;26.70;56.60;;;;;;5037966;28;20124;-81
2022/08/10 09:03:41;;;;;;;9.55;1.92;;;26.90;55.90;;;;;;5047538;28;20029;-80
2022/08/10 09:06:25;;;;;;;5.15;2.00;;;26.90;56.50;;;;;;5062034;28;20040;-82
2022/08/10 09:09:21;;;;;;;2.50;1.80;;;27.00;56.20;;;;;;5065839;28;20021;-82
2022/08/10 09:12:34;;;;;;;6.32;1.85;;;27.10;55.90;;;;;;5041914;28;20109;-81
2022/08/10 09:15:29;;;;;;;5.03;1.70;;;27.20;55.60;;;;;;5057150;28;20061;-83
2022/08/10 09:18:04;;;;;;;5.65;1.70;;;27.50;55.00;;;;;;5064263;28;20041;-82
2022/08/10 09:20:48;;;;;;;2.70;1.80;;;27.50;55.60;;;;;;5052068;28;20039;-83
2022/08/10 09:23:33;;;;;;;4.60;1.98;;;27.70;54.40;;;;;;5047115;28;20099;-83
2022/08/10 09:26:02;;;;;;;3.97;1.95;;;27.70;54.80;;;;;;5057284;28;20218;-81
2022/08/10 09:28:35;;;;;;;5.72;2.03;;;27.60;53.50;;;;;;5048341;28;20401;-81
2022/08/10 09:31:05;;;;;;;5.45;2.00;;;27.70;54.10;;;;;;5052978;28;20097;-81
2022/08/10 09:33:39;;;;;;;2.78;1.42;;;27.90;53.20;;;;;;5058392;28;20033;-81
2022/08/10 09:36:22;;;;;;;5.65;1.45;;;28.00;52.70;;;;;;5069024;28;20029;-79
2022/08/10 09:38:48;;;;;;;5.30;1.63;;;;;;;;;;5053750;28;20119;-81
2022/08/10 09:41:45;;;;;;;3.90;1.95;;;28.20;52.80;;;;;;5051632;28;20021;-82
2022/08/10 09:44:11;;;;;;;5.85;1.83;;;28.40;53.90;;;;;;5075190;28;20044;-82
2022/08/10 09:46:49;;;;;;;3.33;1.75;;;28.50;53.80;;;;;;5077570;28;20056;-82
2022/08/10 09:49:32;;;;;;;2.20;1.50;;;28.60;53.80;;;;;;5064588;28;20030;-82
2022/08/10 09:52:16;;;;;;;4.90;1.60;;;28.70;53.30;;;;;;5053550;28;20029;-80
2022/08/10 09:55:08;;;;;;;2.40;1.75;;;28.70;52.40;;;;;;5037141;28;20028;-79
2022/08/10 09:58:08;;;;;;;4.13;2.20;;;28.70;53.00;;;;;;5027921;28;20039;-80
2022/08/10 10:00:46;;;;;;;4.72;1.70;;;28.80;52.90;;;;;;5056755;28;20027;-82
2022/08/10 10:03:59;;;;;;;2.80;1.60;;;28.90;51.90;;;;;;5032373;28;20094;-79
2022/08/10 10:06:31;;;;;;;3.72;1.50;;;28.90;51.70;;;;;;5013201;28;20044;-80
2022/08/10 10:09:19;;;;;;;2.72;1.48;;;28.90;52.20;;;;;;5050677;28;20097;-83
2022/08/10 10:12:10;;;;;;;3.28;1.60;;;28.90;52.20;;;;;;5067054;28;20036;-83
2022/08/10 10:17:42;;;;;;;2.70;1.42;;;;;;;;;;5063867;28;20051;-81
2022/08/10 10:20:22;;;;;;;3.55;1.50;;;29.10;49.80;;;;;;5045699;28;20091;-80
2022/08/10 10:23:12;;;;;;;2.45;1.52;;;29.10;50.00;;;;;;5061545;28;20028;-81
2022/08/10 10:25:42;;;;;;;4.85;1.70;;;;;;;;;;5063145;28;20390;-82
2022/08/10 10:28:19;;;;;;;1.83;1.30;;;29.20;49.50;;;;;;5061464;28;20025;-82
2022/08/10 10:31:08;;;;;;;4.90;2.15;;;29.30;49.90;;;;;;5052506;28;20393;-81
2022/08/10 10:34:01;;;;;;;6.75;1.70;;;29.30;48.90;;;;;;5047649;28;20022;-82
2022/08/10 10:36:28;;;;;;;5.10;1.70;;;29.20;49.30;;;;;;5039677;28;20044;-83
2022/08/10 10:38:58;;;;;;;4.72;1.80;;;29.10;49.30;;;;;;5065105;28;20025;-82
2022/08/10 10:41:30;;;;;;;;;;;29.00;50.20;;;;;;5049836;28;20098;-80
2022/08/10 10:44:15;;;;;;;5.93;1.83;;;28.80;49.00;;;;;;5066350;28;19904;-82
2022/08/10 10:47:05;;;;;;;4.75;1.55;;;28.90;49.90;;;;;;5065622;28;20039;-84
2022/08/10 10:50:14;;;;;;;5.50;1.65;;;29.00;49.20;;;;;;5047851;28;20021;-83
2022/08/10 10:52:43;;;;;;;1.95;1.40;;;29.10;49.20;;;;;;5059162;28;20029;-82
2022/08/10 10:55:29;;;;;;;5.25;1.60;;;29.20;48.90;;;;;;5048511;28;20029;-80
2022/08/10 10:58:07;;;;;;;3.58;1.65;;;29.10;49.70;;;;;;5048967;28;20031;-82
2022/08/10 11:00:49;;;;;;;2.90;1.50;;;29.20;49.30;;;;;;5064644;28;20029;-82
2022/08/10 11:03:33;;;;;;;2.83;1.70;;;29.30;48.30;;;;;;5047690;28;20037;-82
2022/08/10 11:06:31;;;;;;;6.80;2.00;;;29.40;48.60;;;;;;5056407;28;20063;-82
2022/08/10 11:09:04;;;;;;;3.53;1.45;;;29.50;49.10;;;;;;5059443;28;20033;-83
2022/08/10 11:11:34;;;;;;;2.85;1.52;;;29.70;49.00;;;;;;5064959;28;20011;-83
2022/08/10 11:14:34;;;;;;;2.65;1.52;;;29.80;48.10;;;;;;5067533;28;20682;-83
2022/08/10 11:17:10;;;;;;;6.13;2.20;;;29.90;48.30;;;;;;5064116;28;20069;-81
2022/08/10 11:19:51;;;;;;;3.95;2.15;;;30.20;47.70;;;;;;5063696;28;20029;-81
2022/08/10 11:22:26;;;;;;;5.10;1.73;;;30.10;47.50;;;;;;5063550;28;20052;-82
2022/08/10 11:25:14;;;;;;;3.80;2.13;;;30.30;47.50;;;;;;5047925;28;20089;-81
2022/08/10 11:27:48;;;;;;;2.55;1.58;;;30.40;47.50;;;;;;5064278;28;20479;-81
2022/08/10 11:30:19;;;;;;;6.40;1.77;;;30.30;47.50;;;;;;5056670;28;20025;-82
2022/08/10 11:33:09;;;;;;;6.55;1.90;;;30.20;47.60;;;;;;5066603;28;20032;-82
2022/08/10 11:35:55;;;;;;;5.93;1.73;;;30.20;47.50;;;;;;5067351;28;20036;-82
2022/08/10 11:38:34;;;;;;;4.22;1.60;;;30.20;47.30;;;;;;5064415;28;20021;-82
2022/08/10 11:41:15;;;;;;;;;;;30.20;47.80;;;;;;5045520;28;20441;-82
2022/08/10 11:44:03;;;;;;;5.25;1.77;;;30.10;47.10;;;;;;5044994;28;19905;-84
2022/08/10 11:46:56;;;;;;;4.90;1.70;;;30.10;47.50;;;;;;5054565;28;20129;-83
2022/08/10 11:49:34;;;;;;;6.00;2.03;;;30.10;46.70;;;;;;5054791;28;20052;-84
2022/08/10 11:52:09;;;;;;;6.38;1.92;;;30.10;47.20;;;;;;5067180;28;20032;-82
2022/08/10 11:54:57;;;;;;;4.28;1.80;;;29.70;47.40;;;;;;5048545;28;20021;-84
2022/08/10 11:57:29;;;;;;;4.47;1.75;;;29.70;48.10;;;;;;5048184;28;20795;-84
2022/08/10 11:59:55;;;;;;;4.60;1.88;;;;;;;;;;5065196;28;20036;-84
2022/08/10 12:02:41;;;;;;;5.40;1.60;;;29.60;47.50;;;;;;5056084;28;20029;-82
2022/08/10 12:05:14;;;;;;;4.20;1.65;;;30.00;47.30;;;;;;5057469;28;20442;-83
2022/08/10 12:07:50;;;;;;;6.80;1.48;;;30.00;47.80;;;;;;5060600;28;20029;-84
2022/08/10 12:10:17;;;;;;;5.35;1.90;;;30.20;47.20;;;;;;5068034;28;20017;-83
2022/08/10 12:13:01;;;;;;;3.03;1.90;;;30.40;46.70;;;;;;5058962;28;20017;-81
2022/08/10 12:15:56;;;;;;;5.60;1.58;;;30.40;47.10;;;;;;5069215;28;20040;-83
2022/08/10 12:18:37;;;;;;;3.83;1.77;;;30.30;47.40;;;;;;5043194;28;20070;-84
2022/08/10 12:21:10;;;;;;;9.98;1.88;;;30.40;47.70;;;;;;5057571;28;20021;-82
2022/08/10 12:23:45;;;;;;;4.15;1.55;;;30.30;47.20;;;;;;5052752;28;20081;-84
2022/08/10 12:26:43;;;;;;;2.42;1.70;;;30.30;47.70;;;;;;5078755;28;20033;-82
2022/08/10 12:29:23;;;;;;;6.03;1.75;;;30.20;47.40;;;;;;5061405;28;20009;-82
2022/08/10 12:32:10;;;;;;;4.15;1.80;;;30.30;47.80;;;;;;5074708;28;20059;-82
2022/08/10 12:34:49;;;;;;;4.30;1.92;;;30.40;47.50;;;;;;5057104;28;20025;-83
2022/08/10 12:37:34;;;;;;;7.65;1.60;;;30.40;48.20;;;;;;5051647;28;20028;-81
2022/08/10 12:40:14;;;;;;;3.40;2.00;;;30.40;47.50;;;;;;5056963;28;20055;-83
2022/08/10 12:43:00;;;;;;;2.78;1.70;;;30.60;47.40;;;;;;5068702;28;20016;-81
2022/08/10 12:45:41;;;;;;;5.43;1.80;;;30.60;47.30;;;;;;5055336;28;20033;-81
2022/08/10 12:48:22;;;;;;;2.13;1.50;;;30.60;47.60;;;;;;5057821;28;20033;-81
2022/08/10 12:51:17;;;;;;;3.97;1.52;;;30.60;47.40;;;;;;5060661;28;20021;-81
2022/08/10 12:54:12;;;;;;;5.07;1.75;;;30.50;47.00;;;;;;5054387;28;20029;-81
2022/08/10 12:56:48;;;;;;;3.65;1.58;;;30.50;47.70;;;;;;5068737;28;20025;-80
2022/08/10 12:59:15;;;;;;;5.28;1.77;;;;;;;;;;5056439;28;20035;-81
2022/08/10 13:01:45;;;;;;;3.08;1.63;;;30.50;47.00;;;;;;5044721;28;20021;-82
2022/08/10 13:04:16;;;;;;;3.42;1.40;;;30.50;47.30;;;;;;5067441;28;20025;-81
2022/08/10 13:06:45;;;;;;;2.17;1.55;;;30.80;46.50;;;;;;5047637;28;20039;-81
2022/08/10 13:09:12;;;;;;;3.28;1.90;;;30.80;46.90;;;;;;5042595;28;20087;-82
2022/08/10 13:11:48;;;;;;;6.10;1.90;;;30.90;46.10;;;;;;5054505;28;20026;-82
2022/08/10 13:14:21;;;;;;;5.72;1.83;;;30.90;46.00;;;;;;5042408;28;20021;-82
2022/08/10 13:16:48;;;;;;;4.80;1.60;;;31.10;46.00;;;;;;5070250;28;20037;-82
2022/08/10 13:19:20;;;;;;;6.35;1.85;;;31.00;46.60;;;;;;5076342;28;20044;-82
2022/08/10 13:21:46;;;;;;;3.85;1.70;;;31.20;45.30;;;;;;5059710;28;20037;-82
2022/08/10 13:24:16;;;;;;;4.45;1.70;;;31.20;45.30;;;;;;5076683;28;20049;-82
2022/08/10 13:26:57;;;;;;;3.47;1.60;;;31.10;45.70;;;;;;5057459;28;20016;-82
2022/08/10 13:29:25;;;;;;;6.68;2.25;;;31.00;45.30;;;;;;5074000;28;20021;-82
2022/08/10 13:31:53;;;;;;;5.15;1.63;;;31.00;45.10;;;;;;5076070;28;20036;-82
2022/08/10 13:34:24;;;;;;;8.67;1.60;;;30.90;45.20;;;;;;5062357;28;20036;-85
2022/08/10 13:36:57;;;;;;;6.57;1.95;;;30.90;46.40;;;;;;5075590;28;20021;-84